Time;durP1;ratioP1;P1;durP2;ratioP2;P2;SDS_P1;SDS_P2;PMS_P1;PMS_P2;Temp;Humidity;BMP_temperature;BMP_pressure;BME280_temperature;BME280_humidity;BME280_pressure;Samples;Min_cycle;Max_cycle;Signal;HPM_P1;HPM_P2
2022/01/02 00:02:22;;;;;;;5.68;3.00;;;10.90;99.90;;;9.41;100.00;101472.53;2565620;30;137357;-39
2022/01/02 00:05:01;;;;;;;6.13;3.17;;;10.90;99.90;;;9.42;100.00;101474.22;2567794;30;139223;-39
2022/01/02 00:07:33;;;;;;;5.50;2.80;;;10.90;99.90;;;9.38;100.00;101478.34;2565626;30;137608;-39
2022/01/02 00:10:05;;;;;;;6.53;3.25;;;10.90;99.90;;;9.31;100.00;101464.63;2564234;38;138193;-39
2022/01/02 00:12:35;;;;;;;5.95;3.22;;;10.80;99.90;;;9.28;100.00;101467.72;2567310;30;138170;-39
2022/01/02 00:15:06;;;;;;;5.97;2.97;;;10.80;99.90;;;9.27;100.00;101482.38;2566297;30;138525;-39
2022/01/02 00:17:34;;;;;;;6.32;3.22;;;10.80;99.90;;;9.31;100.00;101478.25;2565861;30;138485;-39
2022/01/02 00:20:10;;;;;;;6.13;3.13;;;10.80;99.90;;;9.27;100.00;101472.31;2568019;30;139253;-39
2022/01/02 00:22:41;;;;;;;5.85;3.50;;;10.80;99.90;;;9.28;100.00;101473.19;2567507;30;137103;-39
2022/01/02 00:25:18;;;;;;;7.68;3.47;;;10.80;99.90;;;9.31;100.00;101464.63;2567575;30;139142;-39
2022/01/02 00:27:46;;;;;;;6.20;3.15;;;10.80;99.90;;;9.27;100.00;101466.88;2566845;30;138365;-40
2022/01/02 00:30:13;;;;;;;6.50;3.35;;;10.80;99.90;;;9.22;100.00;101463.88;2568510;30;138502;-39
2022/01/02 00:32:44;;;;;;;8.48;3.75;;;10.70;99.90;;;9.23;100.00;101465.56;2568192;30;137708;-39
2022/01/02 00:35:12;;;;;;;6.93;3.20;;;10.70;99.90;;;9.32;100.00;101478.06;2567950;30;138341;-40
2022/01/02 00:37:40;;;;;;;7.47;3.60;;;10.80;99.90;;;9.31;100.00;101476.38;2567865;30;137414;-39
2022/01/02 00:40:15;;;;;;;7.40;3.75;;;10.80;99.90;;;9.32;100.00;101467.19;2567791;30;137131;-39
2022/01/02 00:42:43;;;;;;;7.97;3.85;;;10.80;99.90;;;9.28;100.00;101465.88;2565264;30;137731;-39
2022/01/02 00:45:25;;;;;;;6.80;3.40;;;10.80;99.90;;;9.36;100.00;101470.34;2568299;30;138362;-39
2022/01/02 00:48:21;;;;;;;6.88;3.40;;;10.80;99.90;;;9.32;100.00;101493.56;2567321;30;137466;-39
2022/01/02 00:50:56;;;;;;;7.28;3.30;;;10.80;99.90;;;9.31;100.00;101500.91;2567924;30;139339;-40
2022/01/02 00:53:34;;;;;;;6.40;3.38;;;10.80;99.90;;;9.26;100.00;101503.31;2566500;30;139534;-39
2022/01/02 00:56:04;;;;;;;6.65;3.60;;;10.80;99.90;;;9.27;100.00;101493.28;2566744;30;139446;-40
2022/01/02 00:58:59;;;;;;;8.23;3.50;;;10.70;99.90;;;9.28;100.00;101486.78;2567381;30;136760;-39
2022/01/02 01:01:34;;;;;;;5.30;3.10;;;10.80;99.90;;;9.23;100.00;101481.91;2567745;30;139313;-40
2022/01/02 01:04:06;;;;;;;6.57;3.40;;;10.80;99.90;;;9.22;100.00;101480.22;2566250;30;137374;-39
2022/01/02 01:06:38;;;;;;;7.68;3.63;;;10.70;99.90;;;9.26;100.00;101486.97;2565352;30;137494;-40
2022/01/02 01:09:06;;;;;;;6.72;3.85;;;10.70;99.90;;;9.27;100.00;101479.66;2568803;30;137606;-39
2022/01/02 01:11:41;;;;;;;8.27;3.92;;;10.80;99.90;;;9.23;100.00;101492.78;2570251;30;138235;-39
2022/01/02 01:14:09;;;;;;;7.00;3.75;;;10.70;99.90;;;9.24;100.00;101483.59;2569402;30;137531;-39
2022/01/02 01:16:39;;;;;;;6.63;3.70;;;10.70;99.90;;;9.24;100.00;101486.31;2568038;30;138765;-39
2022/01/02 01:19:16;;;;;;;7.25;3.55;;;10.70;99.90;;;9.28;100.00;101476.75;2568872;30;138438;-39
2022/01/02 01:21:46;;;;;;;7.45;3.80;;;10.70;99.90;;;9.37;100.00;101474.75;2569760;30;138916;-39
2022/01/02 01:24:17;;;;;;;9.00;3.95;;;10.80;99.90;;;9.33;100.00;101482.47;2568897;30;137163;-39
2022/01/02 01:26:47;;;;;;;6.55;3.47;;;10.80;99.90;;;9.33;100.00;101481.63;2566924;30;139831;-39
2022/01/02 01:29:15;;;;;;;6.75;3.90;;;10.80;99.90;;;9.28;100.00;101492.25;2569419;30;138714;-39
2022/01/02 01:31:44;;;;;;;;;;;10.80;99.90;;;9.33;100.00;101503.41;2568659;30;139715;-39
2022/01/02 01:34:12;;;;;;;5.90;3.43;;;10.80;99.90;;;9.37;100.00;101504.72;2568337;30;138287;-39
2022/01/02 01:36:41;;;;;;;7.43;4.18;;;10.80;99.90;;;9.40;100.00;101498.06;2569222;30;139098;-39
2022/01/02 01:39:08;;;;;;;7.43;3.88;;;10.90;99.90;;;9.42;100.00;101485.09;2569223;30;137545;-40
2022/01/02 01:41:38;;;;;;;;;;;10.90;99.90;;;9.32;100.00;101472.63;2567725;30;137613;-39
2022/01/02 01:46:41;;;;;;;6.57;3.63;;;10.80;99.90;;;9.34;100.00;101476.00;2568054;30;140622;-39
2022/01/02 01:49:17;;;;;;;8.30;3.60;;;10.80;99.90;;;9.33;100.00;101471.59;2568094;30;137388;-39
2022/01/02 01:51:47;;;;;;;7.07;3.22;;;10.80;99.90;;;9.35;100.00;101458.63;2566933;30;139737;-39
2022/01/02 01:54:17;;;;;;;7.05;3.67;;;10.80;99.90;;;9.35;100.00;101463.22;2568906;30;137762;-39
2022/01/02 01:56:46;;;;;;;7.63;4.22;;;10.80;99.90;;;9.33;100.00;101471.59;2568778;30;139668;-39
2022/01/02 01:59:18;;;;;;;6.38;3.92;;;10.80;99.90;;;9.34;100.00;101459.66;2569596;30;138916;-39
2022/01/02 02:01:48;;;;;;;6.70;3.65;;;10.80;99.90;;;9.33;100.00;101440.78;2568365;30;139266;-39
2022/01/02 02:04:17;;;;;;;6.18;3.63;;;10.80;99.90;;;9.34;100.00;101439.75;2568167;30;138948;-39
2022/01/02 02:06:45;;;;;;;8.05;3.75;;;10.80;99.90;;;9.30;100.00;101428.41;2569654;30;140774;-40
2022/01/02 02:09:15;;;;;;;6.63;3.53;;;10.80;99.90;;;9.30;100.00;101443.88;2566769;30;139388;-40
2022/01/02 02:11:45;;;;;;;5.00;3.33;;;10.80;99.90;;;9.27;100.00;101464.16;2569548;30;140859;-39
2022/01/02 02:14:14;;;;;;;7.43;3.50;;;10.80;99.90;;;9.20;100.00;101460.50;2568099;30;139308;-39
2022/01/02 02:16:42;;;;;;;7.72;3.47;;;10.70;99.90;;;9.25;100.00;101462.66;2569279;30;138362;-39
2022/01/02 02:19:12;;;;;;;7.55;3.72;;;10.70;99.90;;;9.32;100.00;101452.69;2567442;30;138407;-39
2022/01/02 02:21:40;;;;;;;8.35;3.83;;;10.80;99.90;;;9.25;100.00;101451.78;2567279;30;138705;-39
2022/01/02 02:24:09;;;;;;;6.10;3.35;;;10.70;99.90;;;9.19;100.00;101448.78;2568490;30;138581;-39
2022/01/02 02:26:38;;;;;;;7.22;4.03;;;10.70;99.90;;;9.21;100.00;101452.16;2568004;30;138632;-39
2022/01/02 02:29:06;;;;;;;6.85;3.38;;;10.70;99.90;;;9.16;100.00;101456.47;2568047;30;137345;-39
2022/01/02 02:31:34;;;;;;;6.55;3.60;;;10.70;99.90;;;9.19;100.00;101450.66;2566988;30;138664;-39
2022/01/02 02:34:02;;;;;;;;;;;10.70;99.90;;;9.24;100.00;101440.03;2568362;30;137607;-40
2022/01/02 02:36:30;;;;;;;7.55;3.47;;;10.70;99.90;;;9.28;100.00;101430.47;2567120;30;139787;-40
2022/01/02 02:38:57;;;;;;;6.85;3.58;;;10.70;99.90;;;9.31;100.00;101429.22;2567666;30;138893;-39
2022/01/02 02:41:31;;;;;;;7.70;3.28;;;10.70;99.90;;;9.27;100.00;101409.69;2566680;30;139541;-39
2022/01/02 02:44:08;;;;;;;8.32;4.03;;;10.80;99.90;;;9.32;100.00;101399.09;2567920;30;139853;-39
2022/01/02 02:49:22;;;;;;;10.18;4.25;;;10.80;99.90;;;9.20;100.00;101387.84;2567223;30;139108;-39
2022/01/02 02:54:32;;;;;;;7.22;3.45;;;10.70;99.90;;;9.19;100.00;101378.00;2567450;30;138066;-39
2022/01/02 02:57:00;;;;;;;6.20;3.65;;;10.70;99.90;;;9.18;100.00;101375.44;2567231;30;140546;-40
2022/01/02 02:59:35;;;;;;;6.00;3.75;;;10.70;99.90;;;9.16;100.00;101374.78;2567811;30;137620;-39
2022/01/02 03:02:05;;;;;;;7.55;3.97;;;10.70;99.90;;;9.13;100.00;101365.13;2567806;30;139694;-39
2022/01/02 03:04:45;;;;;;;7.72;3.50;;;10.70;99.90;;;9.17;100.00;101362.88;2566932;30;138614;-39
2022/01/02 03:07:12;;;;;;;7.85;3.63;;;10.70;99.90;;;9.12;100.00;101371.59;2565878;30;137715;-39
2022/01/02 03:09:46;;;;;;;7.13;4.13;;;10.60;99.90;;;9.15;100.00;101373.09;2566743;30;137368;-39
2022/01/02 03:12:15;;;;;;;7.85;3.78;;;10.60;99.90;;;9.11;100.00;101377.25;2568378;30;139975;-40
2022/01/02 03:14:46;;;;;;;7.00;3.40;;;10.60;99.90;;;9.11;100.00;101375.34;2568448;30;138553;-39
2022/01/02 03:17:15;;;;;;;7.65;3.63;;;10.60;99.90;;;9.14;100.00;101372.25;2568606;30;138694;-40
2022/01/02 03:19:42;;;;;;;5.80;3.75;;;10.60;99.90;;;9.13;100.00;101367.84;2567932;30;139538;-40
2022/01/02 03:22:13;;;;;;;6.05;3.45;;;10.60;99.90;;;9.18;100.00;101359.97;2567188;30;139153;-39
2022/01/02 03:24:41;;;;;;;5.60;3.35;;;10.60;99.90;;;9.24;100.00;101358.34;2565544;30;138005;-39
2022/01/02 03:30:39;;;;;;;6.82;3.72;;;10.70;99.90;;;9.30;100.00;101368.50;2567189;30;136720;-37
2022/01/02 03:33:07;;;;;;;6.40;3.22;;;10.80;99.90;;;9.29;100.00;101374.97;2567805;30;136836;-37
2022/01/02 03:35:37;;;;;;;5.82;3.17;;;10.80;99.90;;;9.29;100.00;101368.69;2567209;30;138202;-37
2022/01/02 03:38:06;;;;;;;9.43;3.83;;;10.80;99.90;;;9.29;100.00;101366.81;2564910;30;138837;-37
2022/01/02 03:40:33;;;;;;;7.97;3.75;;;10.80;99.90;;;9.24;100.00;101363.78;2567334;30;138514;-38
2022/01/02 03:43:02;;;;;;;8.15;3.60;;;10.70;99.90;;;9.30;100.00;101357.59;2568218;30;138910;-38
2022/01/02 03:45:30;;;;;;;7.38;3.85;;;10.80;99.90;;;9.24;100.00;101336.56;2567613;30;139561;-38
2022/01/02 03:47:58;;;;;;;7.85;3.95;;;10.80;99.90;;;9.25;100.00;101330.09;2567579;30;139518;-37
2022/01/02 03:50:26;;;;;;;7.35;3.60;;;10.80;99.90;;;9.26;100.00;101323.59;2568507;30;140545;-37
2022/01/02 03:52:54;;;;;;;8.48;4.28;;;10.80;99.90;;;9.23;100.00;101329.44;2568890;30;137045;-37
2022/01/02 03:55:23;;;;;;;8.45;3.78;;;10.70;99.90;;;9.33;100.00;101315.50;2568712;30;139078;-37
2022/01/02 03:57:51;;;;;;;8.88;4.38;;;10.80;99.90;;;9.27;100.00;101314.41;2567953;30;139418;-37
2022/01/02 04:00:19;;;;;;;6.13;3.38;;;10.70;99.90;;;9.20;100.00;101314.34;2568039;30;139828;-37
2022/01/02 04:02:47;;;;;;;7.43;3.67;;;10.70;99.90;;;9.20;100.00;101300.72;2568201;30;139722;-37
2022/01/02 04:05:16;;;;;;;7.15;3.85;;;10.70;99.90;;;9.19;100.00;101309.94;2565391;30;140247;-37
2022/01/02 04:07:47;;;;;;;6.78;3.80;;;10.70;99.90;;;9.23;100.00;101304.09;2567493;30;139982;-37
2022/01/02 04:10:18;;;;;;;8.93;4.30;;;10.70;99.90;;;9.21;100.00;101296.13;2567938;30;138299;-37
2022/01/02 04:12:46;;;;;;;7.00;3.88;;;10.70;99.90;;;9.22;100.00;101289.63;2568236;30;139458;-37
2022/01/02 04:15:15;;;;;;;7.55;4.40;;;10.70;99.90;;;9.19;100.00;101300.91;2567308;30;138326;-37
2022/01/02 04:17:43;;;;;;;8.85;4.70;;;10.70;99.90;;;9.20;100.00;101299.88;2566402;30;137562;-38
2022/01/02 04:20:16;;;;;;;9.90;4.53;;;10.70;99.90;;;9.15;100.00;101295.03;2566106;30;140353;-37
2022/01/02 04:22:44;;;;;;;9.43;4.65;;;10.70;99.90;;;9.14;100.00;101295.19;2568424;30;137500;-37
2022/01/02 04:25:13;;;;;;;8.13;4.43;;;10.60;99.90;;;9.12;100.00;101303.53;2566940;30;139196;-37
2022/01/02 04:27:42;;;;;;;8.65;4.97;;;10.60;99.90;;;9.06;100.00;101307.03;2567992;30;138292;-38
2022/01/02 04:30:13;;;;;;;6.90;4.30;;;10.60;99.90;;;9.07;100.00;101320.47;2567725;30;136788;-37
2022/01/02 04:32:41;;;;;;;8.30;4.07;;;10.60;99.90;;;9.05;100.00;101302.63;2567408;30;139014;-37
2022/01/02 04:35:09;;;;;;;11.02;4.75;;;10.60;99.90;;;9.08;100.00;101310.41;2568161;30;141011;-37
2022/01/02 04:37:38;;;;;;;8.73;4.38;;;10.60;99.90;;;9.10;100.00;101315.69;2567994;30;138635;-38
2022/01/02 04:40:07;;;;;;;8.13;4.10;;;10.60;99.90;;;9.09;100.00;101309.38;2566228;30;140639;-37
2022/01/02 04:42:35;;;;;;;9.95;4.20;;;10.60;99.90;;;9.02;100.00;101309.31;2566790;30;137888;-37
2022/01/02 04:45:05;;;;;;;;;;;10.50;99.90;;;9.02;100.00;101301.16;2563679;30;139948;-37
2022/01/02 04:47:33;;;;;;;9.70;4.75;;;10.50;99.90;;;9.05;100.00;101283.56;2567584;30;138366;-37
2022/01/02 04:50:00;;;;;;;8.93;4.57;;;10.60;99.90;;;9.03;100.00;101281.06;2567775;30;138656;-38
2022/01/02 04:52:28;;;;;;;8.82;4.47;;;10.50;99.90;;;9.02;100.00;101279.38;2564272;30;137374;-37
2022/01/02 04:54:55;;;;;;;8.95;4.57;;;10.50;99.90;;;9.01;100.00;101288.53;2566252;30;136980;-37
2022/01/02 04:57:23;;;;;;;8.82;4.63;;;10.50;99.90;;;9.02;100.00;101279.38;2566933;30;139720;-37
2022/01/02 04:59:52;;;;;;;9.27;4.47;;;10.50;99.90;;;9.03;100.00;101264.72;2567526;30;137397;-37
2022/01/02 05:02:19;;;;;;;9.27;5.55;;;10.50;99.90;;;9.05;100.00;101256.34;2564959;30;139826;-37
2022/01/02 05:04:48;;;;;;;8.05;4.82;;;10.50;99.90;;;9.03;100.00;101252.97;2567664;30;139180;-37
2022/01/02 05:07:16;;;;;;;10.35;4.32;;;10.50;99.90;;;9.00;100.00;101247.94;2568185;30;138867;-37
2022/01/02 05:09:44;;;;;;;8.88;4.97;;;10.50;99.90;;;9.01;100.00;101241.44;2564194;30;138580;-37
2022/01/02 05:12:11;;;;;;;9.50;4.80;;;10.50;99.90;;;8.95;100.00;101239.50;2567252;30;139958;-37
2022/01/02 05:14:39;;;;;;;;;;;10.50;99.90;;;9.02;100.00;101237.69;2567467;30;140285;-39
2022/01/02 05:17:07;;;;;;;8.43;4.45;;;10.50;99.90;;;8.95;100.00;101236.78;2567633;30;138667;-37
2022/01/02 05:19:35;;;;;;;9.93;4.70;;;10.50;99.90;;;8.90;100.00;101216.44;2567835;30;137263;-37
2022/01/02 05:22:03;;;;;;;;;;;10.40;99.90;;;8.95;100.00;101218.56;2567779;30;139171;-37
2022/01/02 05:24:31;;;;;;;8.00;4.17;;;10.50;99.90;;;8.85;100.00;101210.69;2566549;30;140601;-37
2022/01/02 05:26:59;;;;;;;9.63;4.75;;;10.40;99.90;;;8.87;100.00;101221.41;2567277;30;136980;-37
2022/01/02 05:29:26;;;;;;;9.10;4.18;;;10.40;99.90;;;8.93;100.00;101223.34;2567512;30;140574;-37
2022/01/02 05:31:54;;;;;;;;;;;10.40;99.90;;;8.85;100.00;101218.84;2567490;30;137384;-37
2022/01/02 05:34:21;;;;;;;10.63;4.40;;;10.40;99.90;;;8.85;100.00;101213.41;2567709;30;137997;-37
2022/01/02 05:36:49;;;;;;;9.52;4.75;;;10.40;99.90;;;8.85;100.00;101212.59;2567246;30;137513;-37
2022/01/02 05:39:21;;;;;;;8.80;4.63;;;10.40;99.90;;;8.86;100.00;101217.00;2566771;30;139359;-37
2022/01/02 05:41:51;;;;;;;8.55;4.85;;;10.40;99.90;;;8.88;100.00;101202.16;2568039;30;138627;-37
2022/01/02 05:44:21;;;;;;;9.35;5.28;;;10.40;99.90;;;8.90;100.00;101201.97;2567267;30;138476;-37
2022/01/02 05:46:49;;;;;;;13.93;4.38;;;10.40;99.90;;;8.87;100.00;101196.91;2566495;30;138517;-37
2022/01/02 05:49:17;;;;;;;10.93;4.85;;;10.40;99.90;;;8.87;100.00;101181.41;2567116;30;138452;-37
2022/01/02 05:51:45;;;;;;;11.23;4.72;;;10.40;99.90;;;8.92;100.00;101186.28;2567337;30;137021;-37
2022/01/02 05:54:12;;;;;;;8.57;4.05;;;10.40;99.90;;;8.88;100.00;101201.31;2565739;30;139748;-37
2022/01/02 05:56:40;;;;;;;9.77;4.43;;;10.40;99.90;;;8.89;100.00;101195.69;2565456;30;138874;-37
2022/01/02 05:59:08;;;;;;;10.50;5.13;;;10.40;99.90;;;8.84;100.00;101192.69;2568343;30;138378;-38
2022/01/02 06:01:36;;;;;;;9.32;4.63;;;10.30;99.90;;;8.84;100.00;101189.13;2566310;30;137551;-37
2022/01/02 06:04:04;;;;;;;9.13;4.32;;;10.40;99.90;;;8.80;100.00;101177.78;2567302;30;139720;-37
2022/01/02 06:06:31;;;;;;;9.05;4.38;;;10.30;99.90;;;8.86;100.00;101155.25;2567892;30;136899;-37
2022/01/02 06:08:59;;;;;;;;;;;10.30;99.90;;;8.91;100.00;101158.25;2568686;30;140162;-37
2022/01/02 06:11:27;;;;;;;12.57;5.30;;;10.40;99.90;;;8.95;100.00;101142.38;2567830;30;136854;-37
2022/01/02 06:13:54;;;;;;;11.35;4.88;;;10.40;99.90;;;8.97;100.00;101134.84;2570009;30;138310;-37
2022/01/02 06:16:24;;;;;;;8.27;4.78;;;10.50;99.90;;;8.92;100.00;101140.03;2565705;30;137604;-37
2022/01/02 06:18:53;;;;;;;8.98;4.85;;;10.40;99.90;;;8.91;100.00;101141.06;2568415;30;140641;-37
2022/01/02 06:21:21;;;;;;;11.20;5.03;;;10.40;99.90;;;8.94;100.00;101132.50;2568028;30;139168;-37
2022/01/02 06:23:48;;;;;;;8.02;4.90;;;10.40;99.90;;;8.93;100.00;101133.56;2567858;30;139364;-37
2022/01/02 06:26:16;;;;;;;10.52;4.97;;;10.40;99.90;;;8.95;100.00;101130.66;2567928;30;139247;-38
2022/01/02 06:28:43;;;;;;;9.55;4.88;;;10.50;99.90;;;8.91;100.00;101135.63;2568520;30;139340;-37
2022/01/02 06:31:11;;;;;;;12.57;5.05;;;10.40;99.90;;;8.88;100.00;101141.47;2566875;30;139425;-37
2022/01/02 06:33:39;;;;;;;9.30;4.40;;;10.40;99.90;;;8.85;100.00;101139.13;2568001;30;139434;-37
2022/01/02 06:36:07;;;;;;;10.50;5.13;;;10.40;99.90;;;8.85;100.00;101131.78;2567498;30;139530;-37
2022/01/02 06:38:35;;;;;;;9.82;4.90;;;10.30;99.90;;;8.84;100.00;101119.22;2566839;30;139951;-37
2022/01/02 06:41:03;;;;;;;;;;;10.40;99.90;;;8.84;100.00;101113.78;2568666;30;138929;-37
2022/01/02 06:43:32;;;;;;;10.00;4.78;;;10.40;99.90;;;8.82;100.00;101107.69;2568527;30;139929;-37
2022/01/02 06:46:00;;;;;;;9.45;5.10;;;10.40;99.90;;;8.85;100.00;101101.03;2567845;30;138295;-37
2022/01/02 06:48:28;;;;;;;9.95;5.03;;;10.40;99.90;;;8.81;100.00;101092.41;2566879;30;140291;-37
2022/01/02 06:50:57;;;;;;;8.77;4.80;;;10.30;99.90;;;8.89;100.00;101083.28;2566372;30;140686;-37
2022/01/02 06:53:26;;;;;;;10.07;5.50;;;10.40;99.90;;;8.90;100.00;101083.09;2567749;30;140354;-37
2022/01/02 06:55:53;;;;;;;13.50;5.68;;;10.40;99.90;;;8.87;100.00;101067.13;2567411;30;139562;-37
2022/01/02 06:58:21;;;;;;;9.98;5.13;;;10.40;99.90;;;8.89;100.00;101058.78;2566732;30;140590;-37
2022/01/02 07:00:49;;;;;;;10.00;5.60;;;10.40;99.90;;;8.91;100.00;101049.41;2568138;30;136770;-37
2022/01/02 07:03:16;;;;;;;;;;;10.40;99.90;;;8.94;100.00;101026.38;2569297;30;139927;-37
2022/01/02 07:05:44;;;;;;;9.95;4.82;;;10.40;99.90;;;8.99;100.00;101018.47;2568576;30;137881;-37
2022/01/02 07:08:12;;;;;;;9.85;5.10;;;10.50;99.90;;;9.01;100.00;101027.28;2565284;30;139773;-37
2022/01/02 07:10:40;;;;;;;8.57;4.70;;;10.50;99.90;;;9.03;100.00;101030.66;2569175;30;138953;-37
2022/01/02 07:13:08;;;;;;;12.43;5.35;;;10.50;99.90;;;9.00;100.00;101028.31;2566745;30;139152;-37
2022/01/02 07:15:35;;;;;;;9.10;4.50;;;10.50;99.90;;;8.97;100.00;101034.16;2568646;30;137424;-37
2022/01/02 07:18:03;;;;;;;9.95;4.90;;;10.50;99.90;;;8.98;100.00;101033.13;2565793;30;138184;-37
2022/01/02 07:20:30;;;;;;;10.25;5.30;;;10.50;99.90;;;9.00;100.00;101033.75;2567686;30;136947;-37
2022/01/02 07:22:58;;;;;;;9.15;4.93;;;10.50;99.90;;;8.99;100.00;101031.25;2566727;30;137346;-37
2022/01/02 07:25:25;;;;;;;9.70;4.82;;;10.50;99.90;;;9.00;100.00;101030.22;2568149;30;137865;-37
2022/01/02 07:27:53;;;;;;;10.63;5.18;;;10.50;99.90;;;9.03;100.00;101030.66;2568540;30;138546;-37
2022/01/02 07:30:20;;;;;;;9.95;5.07;;;10.50;99.90;;;9.01;100.00;101021.00;2567414;30;137418;-37
2022/01/02 07:32:47;;;;;;;8.32;4.93;;;10.50;99.90;;;9.01;100.00;101016.38;2567298;30;137404;-37
2022/01/02 07:35:15;;;;;;;9.48;4.95;;;10.50;99.90;;;9.01;100.00;100993.78;2567563;30;136724;-37
2022/01/02 07:37:42;;;;;;;9.60;5.07;;;10.50;99.90;;;9.05;100.00;100995.94;2568038;30;138267;-37
2022/01/02 07:40:10;;;;;;;10.57;5.07;;;10.50;99.90;;;9.06;100.00;100983.13;2566114;30;137121;-37
2022/01/02 07:42:38;;;;;;;9.45;4.80;;;10.50;99.90;;;9.05;100.00;100981.47;2567888;30;137527;-37
2022/01/02 07:45:13;;;;;;;8.57;5.00;;;10.60;99.90;;;9.08;100.00;100951.13;2565356;30;139668;-37
2022/01/02 07:47:40;;;;;;;9.35;5.20;;;10.60;99.90;;;9.07;100.00;100928.53;2566888;30;138126;-37
2022/01/02 07:50:09;;;;;;;9.43;4.45;;;10.60;99.90;;;9.09;100.00;100920.13;2568435;30;137491;-37
2022/01/02 07:52:36;;;;;;;9.90;4.78;;;10.60;99.90;;;9.13;100.00;100904.25;2565401;30;137850;-37
2022/01/02 07:55:05;;;;;;;8.38;4.68;;;10.60;99.90;;;9.17;100.00;100894.66;2568444;30;137290;-37
2022/01/02 07:57:32;;;;;;;8.85;4.65;;;10.60;99.90;;;9.17;100.00;100879.16;2567484;30;139082;-37
2022/01/02 08:00:00;;;;;;;8.45;4.10;;;10.70;99.90;;;9.17;100.00;100873.72;2566591;30;137102;-37
2022/01/02 08:02:38;;;;;;;12.50;4.95;;;10.70;99.90;;;9.23;100.00;100884.84;2568586;30;136845;-37
2022/01/02 08:05:07;;;;;;;9.07;4.35;;;10.70;99.90;;;9.22;100.00;100881.25;2567739;30;136753;-37
2022/01/02 08:07:38;;;;;;;8.82;4.00;;;10.70;99.90;;;9.29;100.00;100876.72;2567788;30;138252;-37
2022/01/02 08:10:07;;;;;;;9.35;4.20;;;10.70;99.90;;;9.26;100.00;100866.19;2567860;30;137272;-38
2022/01/02 08:12:34;;;;;;;10.45;4.15;;;10.80;99.90;;;9.30;100.00;100867.50;2567140;30;138050;-37
2022/01/02 08:15:03;;;;;;;8.18;3.90;;;10.80;99.90;;;9.36;100.00;100852.22;2565275;30;138807;-37
2022/01/02 08:17:30;;;;;;;8.13;3.97;;;10.80;99.90;;;9.32;100.00;100859.97;2567549;30;138445;-37
2022/01/02 08:19:58;;;;;;;9.75;4.35;;;10.80;99.90;;;9.32;100.00;100868.13;2566957;30;137262;-37
2022/01/02 08:22:26;;;;;;;6.95;3.78;;;10.80;99.90;;;9.37;100.00;100883.03;2567675;30;138153;-37
2022/01/02 08:24:53;;;;;;;8.18;3.80;;;10.80;99.90;;;9.40;100.00;100869.00;2567485;30;137400;-37
2022/01/02 08:27:21;;;;;;;7.47;3.70;;;10.90;99.90;;;9.39;100.00;100870.03;2567643;30;138295;-37
2022/01/02 08:29:48;;;;;;;7.15;3.40;;;10.90;99.90;;;9.46;100.00;100839.06;2568528;30;137503;-37
2022/01/02 08:32:16;;;;;;;7.32;3.97;;;10.90;99.90;;;9.40;100.00;100858.09;2568332;30;138235;-37
2022/01/02 08:34:43;;;;;;;7.28;3.50;;;10.90;99.90;;;9.38;100.00;100846.56;2566681;30;137352;-37
2022/01/02 08:37:11;;;;;;;9.85;4.13;;;10.90;99.90;;;9.33;100.00;100834.41;2566514;30;138311;-37
2022/01/02 08:39:38;;;;;;;;;;;10.90;99.90;;;9.34;100.00;100854.31;2567603;30;137257;-37
2022/01/02 08:42:06;;;;;;;6.70;3.83;;;10.80;99.90;;;9.37;100.00;100844.91;2567380;30;138323;-37
2022/01/02 08:44:34;;;;;;;8.55;3.78;;;10.80;99.90;;;9.35;100.00;100865.00;2567472;30;138460;-37
2022/01/02 08:47:02;;;;;;;;;;;10.80;99.90;;;9.41;100.00;100859.78;2568317;30;138937;-37
2022/01/02 08:49:29;;;;;;;7.38;3.72;;;10.80;99.90;;;9.37;100.00;100862.06;2568207;30;137132;-37
2022/01/02 08:51:57;;;;;;;;;;;10.80;99.90;;;9.37;100.00;100872.13;2566328;30;137572;-37
2022/01/02 08:54:25;;;;;;;7.57;3.42;;;10.90;99.90;;;9.43;100.00;100846.78;2567986;30;137167;-37
2022/01/02 08:56:53;;;;;;;7.95;3.45;;;10.90;99.90;;;9.41;100.00;100870.66;2567629;30;137747;-37
2022/01/02 08:59:27;;;;;;;6.65;3.75;;;10.90;99.90;;;9.40;100.00;100869.81;2568323;30;138414;-37
2022/01/02 09:01:56;;;;;;;7.18;3.80;;;10.90;99.90;;;9.39;100.00;100861.88;2567388;30;138089;-37
2022/01/02 09:04:24;;;;;;;6.57;3.30;;;10.90;99.90;;;9.40;100.00;100863.53;2566649;30;136982;-37
2022/01/02 09:06:51;;;;;;;7.57;3.53;;;10.90;99.90;;;9.44;100.00;100872.97;2567652;30;139357;-38
2022/01/02 09:09:19;;;;;;;7.47;3.40;;;10.90;99.90;;;9.46;100.00;100879.06;2566311;30;136821;-37
2022/01/02 09:11:47;;;;;;;7.30;3.50;;;10.90;99.90;;;9.42;100.00;100885.97;2568787;30;137381;-37
2022/01/02 09:14:14;;;;;;;6.82;3.20;;;10.90;99.90;;;9.44;100.00;100876.56;2568036;30;136816;-36
2022/01/02 09:16:44;;;;;;;5.07;3.13;;;10.90;99.90;;;9.49;100.00;100881.38;2568273;30;140726;-37
2022/01/02 09:19:13;;;;;;;6.43;3.28;;;10.90;99.90;;;9.48;100.00;100896.03;2567326;30;137557;-37
2022/01/02 09:21:41;;;;;;;5.82;3.08;;;11.00;99.90;;;9.48;100.00;100880.56;2567070;30;137465;-37
2022/01/02 09:24:08;;;;;;;5.30;2.83;;;10.90;99.90;;;9.53;99.79;100874.47;2568376;30;136617;-37
2022/01/02 09:26:36;;;;;;;6.57;3.25;;;11.00;99.90;;;9.60;99.70;100875.34;2566434;30;136970;-37
2022/01/02 09:29:04;;;;;;;4.88;2.95;;;11.00;99.90;;;9.56;99.60;100865.06;2567655;30;138032;-39
2022/01/02 09:31:34;;;;;;;6.30;3.05;;;11.00;99.90;;;9.58;99.63;100879.31;2566419;30;137329;-40
2022/01/02 09:34:07;;;;;;;6.45;2.85;;;11.00;99.90;;;9.60;98.93;100877.22;2569424;30;137203;-40
2022/01/02 09:36:36;;;;;;;6.22;3.10;;;11.10;99.90;;;9.74;97.38;100872.66;2568176;30;137208;-40
2022/01/02 09:39:05;;;;;;;4.90;2.60;;;11.10;99.90;;;9.75;98.28;100904.31;2566591;30;137344;-39
2022/01/02 09:41:32;;;;;;;5.80;2.72;;;11.20;99.90;;;9.71;97.60;100894.88;2568688;30;138199;-39
2022/01/02 09:44:01;;;;;;;6.60;2.90;;;11.20;99.90;;;9.75;96.68;100883.34;2567909;30;137403;-39
2022/01/02 09:46:28;;;;;;;6.40;2.80;;;11.20;99.90;;;9.81;95.93;100869.94;2567646;30;137264;-40
2022/01/02 09:48:56;;;;;;;6.38;2.72;;;11.20;99.90;;;9.90;96.20;100869.56;2568323;30;137496;-39
2022/01/02 09:51:27;;;;;;;4.40;2.67;;;11.30;99.90;;;9.93;96.86;100881.91;2569511;30;137034;-39
2022/01/02 09:53:56;;;;;;;6.15;2.70;;;11.30;99.90;;;9.95;95.87;100888.03;2568811;30;138210;-39
2022/01/02 09:56:24;;;;;;;5.30;2.90;;;11.40;99.90;;;10.04;95.73;100897.66;2565156;30;138552;-39
2022/01/02 09:58:52;;;;;;;7.25;2.25;;;11.40;99.90;;;10.14;96.01;100908.19;2567643;30;138105;-39
2022/01/02 10:01:24;;;;;;;4.95;2.65;;;11.50;99.90;;;10.17;96.28;100918.66;2568521;30;137368;-39
2022/01/02 10:03:55;;;;;;;5.07;2.50;;;11.50;99.90;;;10.15;96.11;100931.66;2569557;30;137501;-39
2022/01/02 10:06:51;;;;;;;5.70;2.55;;;11.50;99.90;;;10.16;95.34;100913.41;2568058;30;137152;-39
2022/01/02 10:09:36;;;;;;;5.70;2.47;;;11.60;99.90;;;10.22;94.93;100897.06;2565476;30;138263;-39
2022/01/02 10:12:27;;;;;;;5.85;2.30;;;11.60;99.90;;;10.42;93.19;100912.63;2568304;30;139052;-39
2022/01/02 10:15:26;;;;;;;4.57;2.22;;;11.70;99.90;;;10.60;93.33;100927.50;2568261;30;138139;-39
2022/01/02 10:18:09;;;;;;;5.15;2.15;;;11.90;99.90;;;10.81;92.85;100926.47;2567392;30;138388;-39
2022/01/02 10:20:44;;;;;;;4.18;2.00;;;12.10;99.90;;;10.84;92.84;100914.28;2568011;30;137328;-39
2022/01/02 10:23:16;;;;;;;5.80;2.33;;;12.20;99.90;;;11.05;91.09;100905.84;2568522;30;138325;-40
2022/01/02 10:25:57;;;;;;;4.10;1.95;;;12.30;99.90;;;11.12;90.36;100913.16;2566786;30;136730;-39
2022/01/02 10:28:34;;;;;;;5.22;2.03;;;12.40;99.90;;;11.23;89.23;100918.00;2568350;30;138935;-39
2022/01/02 10:31:14;;;;;;;5.68;2.25;;;12.50;99.90;;;11.32;88.77;100913.94;2569073;30;136948;-39